sensor_id;sensor_type;location;lat;lon;timestamp;temperature;humidity
57636;DHT22;43465;50.728;4.160;2023-02-28T00:00:50;3.50;99.90
57636;DHT22;43465;50.728;4.160;2023-02-28T00:03:16;3.50;99.90
57636;DHT22;43465;50.728;4.160;2023-02-28T00:05:41;3.50;99.90
57636;DHT22;43465;50.728;4.160;2023-02-28T00:08:08;3.60;99.90
57636;DHT22;43465;50.728;4.160;2023-02-28T00:10:34;3.70;99.90
57636;DHT22;43465;50.728;4.160;2023-02-28T00:13:05;3.60;99.90
57636;DHT22;43465;50.728;4.160;2023-02-28T00:15:31;3.60;99.90
57636;DHT22;43465;50.728;4.160;2023-02-28T00:17:57;3.60;99.90
57636;DHT22;43465;50.728;4.160;2023-02-28T00:20:23;3.60;99.90
57636;DHT22;43465;50.728;4.160;2023-02-28T00:22:51;3.50;99.90
57636;DHT22;43465;50.728;4.160;2023-02-28T00:25:26;3.50;99.90
57636;DHT22;43465;50.728;4.160;2023-02-28T00:27:52;3.60;99.90
57636;DHT22;43465;50.728;4.160;2023-02-28T00:30:20;3.60;99.90
57636;DHT22;43465;50.728;4.160;2023-02-28T00:32:47;3.40;99.90
57636;DHT22;43465;50.728;4.160;2023-02-28T00:35:13;3.30;99.90
57636;DHT22;43465;50.728;4.160;2023-02-28T00:37:39;3.30;99.90
57636;DHT22;43465;50.728;4.160;2023-02-28T00:40:05;3.40;99.90
57636;DHT22;43465;50.728;4.160;2023-02-28T00:42:32;3.30;99.90
57636;DHT22;43465;50.728;4.160;2023-02-28T00:44:58;3.30;99.90
57636;DHT22;43465;50.728;4.160;2023-02-28T00:47:23;3.40;99.90
57636;DHT22;43465;50.728;4.160;2023-02-28T00:49:49;3.40;99.90
57636;DHT22;43465;50.728;4.160;2023-02-28T00:52:15;3.40;99.90
57636;DHT22;43465;50.728;4.160;2023-02-28T00:54:40;3.40;99.90
57636;DHT22;43465;50.728;4.160;2023-02-28T00:57:06;3.30;99.90
57636;DHT22;43465;50.728;4.160;2023-02-28T00:59:32;3.30;99.90
57636;DHT22;43465;50.728;4.160;2023-02-28T01:01:57;3.30;99.90
57636;DHT22;43465;50.728;4.160;2023-02-28T01:04:23;3.30;99.90
57636;DHT22;43465;50.728;4.160;2023-02-28T01:06:49;3.30;99.90
57636;DHT22;43465;50.728;4.160;2023-02-28T01:09:14;3.20;99.90
57636;DHT22;43465;50.728;4.160;2023-02-28T01:11:41;3.20;99.90
57636;DHT22;43465;50.728;4.160;2023-02-28T01:14:12;3.20;99.90
57636;DHT22;43465;50.728;4.160;2023-02-28T01:16:38;3.20;99.90
57636;DHT22;43465;50.728;4.160;2023-02-28T01:19:04;3.10;99.90
57636;DHT22;43465;50.728;4.160;2023-02-28T01:21:29;3.20;99.90
57636;DHT22;43465;50.728;4.160;2023-02-28T01:23:56;3.20;99.90
57636;DHT22;43465;50.728;4.160;2023-02-28T01:26:22;3.10;99.90
57636;DHT22;43465;50.728;4.160;2023-02-28T01:28:50;3.10;99.90
57636;DHT22;43465;50.728;4.160;2023-02-28T01:31:16;3.10;99.90
57636;DHT22;43465;50.728;4.160;2023-02-28T01:33:41;3.00;99.90
57636;DHT22;43465;50.728;4.160;2023-02-28T01:36:11;3.00;99.90
57636;DHT22;43465;50.728;4.160;2023-02-28T01:38:38;2.90;99.90
57636;DHT22;43465;50.728;4.160;2023-02-28T01:41:05;2.90;99.90
57636;DHT22;43465;50.728;4.160;2023-02-28T01:46:07;2.70;99.90
57636;DHT22;43465;50.728;4.160;2023-02-28T01:48:46;2.70;99.90
57636;DHT22;43465;50.728;4.160;2023-02-28T01:51:15;2.80;99.90
57636;DHT22;43465;50.728;4.160;2023-02-28T01:53:47;2.90;99.90
57636;DHT22;43465;50.728;4.160;2023-02-28T01:56:17;2.80;99.90
57636;DHT22;43465;50.728;4.160;2023-02-28T01:58:52;2.80;99.90
57636;DHT22;43465;50.728;4.160;2023-02-28T02:01:18;2.80;99.90
57636;DHT22;43465;50.728;4.160;2023-02-28T02:03:52;2.70;99.90
57636;DHT22;43465;50.728;4.160;2023-02-28T02:06:21;2.80;99.90
57636;DHT22;43465;50.728;4.160;2023-02-28T02:08:47;2.70;99.90
57636;DHT22;43465;50.728;4.160;2023-02-28T02:11:14;2.80;99.90
57636;DHT22;43465;50.728;4.160;2023-02-28T02:14:01;2.80;99.90
57636;DHT22;43465;50.728;4.160;2023-02-28T02:27:37;2.80;99.90
57636;DHT22;43465;50.728;4.160;2023-02-28T02:40:48;2.10;99.90
57636;DHT22;43465;50.728;4.160;2023-02-28T02:43:56;2.00;99.90
57636;DHT22;43465;50.728;4.160;2023-02-28T02:46:20;2.00;99.90
57636;DHT22;43465;50.728;4.160;2023-02-28T02:48:48;2.00;99.90
57636;DHT22;43465;50.728;4.160;2023-02-28T02:51:17;2.20;99.90
57636;DHT22;43465;50.728;4.160;2023-02-28T02:54:03;2.20;99.90
57636;DHT22;43465;50.728;4.160;2023-02-28T02:56:32;2.30;99.90
57636;DHT22;43465;50.728;4.160;2023-02-28T02:59:03;2.30;99.90
57636;DHT22;43465;50.728;4.160;2023-02-28T03:01:31;2.30;99.90
57636;DHT22;43465;50.728;4.160;2023-02-28T03:04:02;2.00;99.90
57636;DHT22;43465;50.728;4.160;2023-02-28T03:06:28;1.90;99.90
57636;DHT22;43465;50.728;4.160;2023-02-28T03:08:54;1.80;99.90
57636;DHT22;43465;50.728;4.160;2023-02-28T03:11:20;2.00;99.90
57636;DHT22;43465;50.728;4.160;2023-02-28T03:27:36;1.90;99.90
57636;DHT22;43465;50.728;4.160;2023-02-28T03:30:36;1.70;99.90
57636;DHT22;43465;50.728;4.160;2023-02-28T03:33:14;1.60;99.90
57636;DHT22;43465;50.728;4.160;2023-02-28T03:35:45;1.60;99.90
57636;DHT22;43465;50.728;4.160;2023-02-28T03:38:49;1.60;99.90
57636;DHT22;43465;50.728;4.160;2023-02-28T03:41:16;1.50;99.90
57636;DHT22;43465;50.728;4.160;2023-02-28T03:43:53;1.40;99.90
57636;DHT22;43465;50.728;4.160;2023-02-28T03:46:23;1.40;99.90
57636;DHT22;43465;50.728;4.160;2023-02-28T03:48:56;1.40;99.90
57636;DHT22;43465;50.728;4.160;2023-02-28T03:51:24;1.40;99.90
57636;DHT22;43465;50.728;4.160;2023-02-28T03:53:54;1.50;99.90
57636;DHT22;43465;50.728;4.160;2023-02-28T03:56:32;1.50;99.90
57636;DHT22;43465;50.728;4.160;2023-02-28T04:02:03;1.30;99.90
57636;DHT22;43465;50.728;4.160;2023-02-28T04:04:29;1.30;99.90
57636;DHT22;43465;50.728;4.160;2023-02-28T04:07:03;1.40;99.90
57636;DHT22;43465;50.728;4.160;2023-02-28T04:09:29;1.40;99.90
57636;DHT22;43465;50.728;4.160;2023-02-28T04:11:55;1.40;99.90
57636;DHT22;43465;50.728;4.160;2023-02-28T04:14:23;1.30;99.90
57636;DHT22;43465;50.728;4.160;2023-02-28T04:16:49;1.30;99.90
57636;DHT22;43465;50.728;4.160;2023-02-28T04:19:16;1.40;99.90
57636;DHT22;43465;50.728;4.160;2023-02-28T04:21:44;1.20;99.90
57636;DHT22;43465;50.728;4.160;2023-02-28T04:24:12;1.30;99.90
57636;DHT22;43465;50.728;4.160;2023-02-28T04:26:46;1.30;99.90
57636;DHT22;43465;50.728;4.160;2023-02-28T04:29:18;1.30;99.90
57636;DHT22;43465;50.728;4.160;2023-02-28T04:31:47;1.20;99.90
57636;DHT22;43465;50.728;4.160;2023-02-28T04:34:12;1.20;99.90
57636;DHT22;43465;50.728;4.160;2023-02-28T04:36:38;1.30;99.90
57636;DHT22;43465;50.728;4.160;2023-02-28T04:39:04;1.40;99.90
57636;DHT22;43465;50.728;4.160;2023-02-28T04:41:30;1.50;99.90
57636;DHT22;43465;50.728;4.160;2023-02-28T04:43:55;1.60;99.90
57636;DHT22;43465;50.728;4.160;2023-02-28T04:46:23;1.40;99.90
57636;DHT22;43465;50.728;4.160;2023-02-28T04:48:49;1.50;99.90
57636;DHT22;43465;50.728;4.160;2023-02-28T04:51:17;1.40;99.90
57636;DHT22;43465;50.728;4.160;2023-02-28T04:53:42;1.60;99.90
57636;DHT22;43465;50.728;4.160;2023-02-28T04:56:11;1.50;99.90
57636;DHT22;43465;50.728;4.160;2023-02-28T04:58:37;1.40;99.90
57636;DHT22;43465;50.728;4.160;2023-02-28T05:03:46;1.40;99.90
57636;DHT22;43465;50.728;4.160;2023-02-28T05:06:12;1.40;99.90
57636;DHT22;43465;50.728;4.160;2023-02-28T05:08:38;1.40;99.90
57636;DHT22;43465;50.728;4.160;2023-02-28T05:11:07;1.30;99.90
57636;DHT22;43465;50.728;4.160;2023-02-28T05:13:34;1.30;99.90
57636;DHT22;43465;50.728;4.160;2023-02-28T05:16:01;1.30;99.90
57636;DHT22;43465;50.728;4.160;2023-02-28T05:18:26;1.20;99.90
57636;DHT22;43465;50.728;4.160;2023-02-28T05:20:52;1.30;99.90
57636;DHT22;43465;50.728;4.160;2023-02-28T05:23:19;1.30;99.90
57636;DHT22;43465;50.728;4.160;2023-02-28T05:25:46;1.40;99.90
57636;DHT22;43465;50.728;4.160;2023-02-28T05:28:11;1.40;99.90
57636;DHT22;43465;50.728;4.160;2023-02-28T05:30:37;1.30;99.90
57636;DHT22;43465;50.728;4.160;2023-02-28T05:33:03;1.40;99.90
57636;DHT22;43465;50.728;4.160;2023-02-28T05:35:31;1.50;99.90
57636;DHT22;43465;50.728;4.160;2023-02-28T05:37:57;1.70;99.90
57636;DHT22;43465;50.728;4.160;2023-02-28T05:40:23;1.70;99.90
57636;DHT22;43465;50.728;4.160;2023-02-28T05:42:50;1.80;99.90
57636;DHT22;43465;50.728;4.160;2023-02-28T05:45:16;1.90;99.90
57636;DHT22;43465;50.728;4.160;2023-02-28T05:47:42;1.80;99.90
57636;DHT22;43465;50.728;4.160;2023-02-28T05:50:08;1.80;99.90
57636;DHT22;43465;50.728;4.160;2023-02-28T05:52:36;1.80;99.90
57636;DHT22;43465;50.728;4.160;2023-02-28T05:55:02;1.70;99.90
57636;DHT22;43465;50.728;4.160;2023-02-28T05:57:27;1.70;99.90
57636;DHT22;43465;50.728;4.160;2023-02-28T05:59:53;1.70;99.90
57636;DHT22;43465;50.728;4.160;2023-02-28T06:02:18;1.70;99.90
57636;DHT22;43465;50.728;4.160;2023-02-28T06:04:45;1.80;99.90
57636;DHT22;43465;50.728;4.160;2023-02-28T06:07:11;1.80;99.90
57636;DHT22;43465;50.728;4.160;2023-02-28T06:09:37;1.70;99.90
57636;DHT22;43465;50.728;4.160;2023-02-28T06:12:04;1.70;99.90
57636;DHT22;43465;50.728;4.160;2023-02-28T06:14:31;1.70;99.90
57636;DHT22;43465;50.728;4.160;2023-02-28T06:16:58;1.90;99.90
57636;DHT22;43465;50.728;4.160;2023-02-28T06:19:24;1.90;99.90
57636;DHT22;43465;50.728;4.160;2023-02-28T06:21:54;2.00;99.90
57636;DHT22;43465;50.728;4.160;2023-02-28T06:24:23;1.90;99.90
57636;DHT22;43465;50.728;4.160;2023-02-28T06:26:50;1.90;99.90
57636;DHT22;43465;50.728;4.160;2023-02-28T06:29:15;1.90;99.90
57636;DHT22;43465;50.728;4.160;2023-02-28T06:31:45;2.00;99.90
57636;DHT22;43465;50.728;4.160;2023-02-28T06:34:12;2.10;99.90
57636;DHT22;43465;50.728;4.160;2023-02-28T06:36:39;2.10;99.90
57636;DHT22;43465;50.728;4.160;2023-02-28T06:39:05;2.10;99.90
57636;DHT22;43465;50.728;4.160;2023-02-28T06:41:31;2.10;99.90
57636;DHT22;43465;50.728;4.160;2023-02-28T06:43:57;2.00;99.90
57636;DHT22;43465;50.728;4.160;2023-02-28T06:46:23;2.10;99.90
57636;DHT22;43465;50.728;4.160;2023-02-28T06:48:49;2.10;99.90
57636;DHT22;43465;50.728;4.160;2023-02-28T06:51:18;2.20;99.90
57636;DHT22;43465;50.728;4.160;2023-02-28T06:53:45;2.30;99.90
57636;DHT22;43465;50.728;4.160;2023-02-28T06:56:13;2.20;99.90
57636;DHT22;43465;50.728;4.160;2023-02-28T06:58:39;2.20;99.90
57636;DHT22;43465;50.728;4.160;2023-02-28T07:01:06;2.20;99.90
57636;DHT22;43465;50.728;4.160;2023-02-28T07:03:32;2.30;99.90
57636;DHT22;43465;50.728;4.160;2023-02-28T07:05:59;2.40;99.90
57636;DHT22;43465;50.728;4.160;2023-02-28T07:08:25;2.50;99.90
57636;DHT22;43465;50.728;4.160;2023-02-28T07:10:53;2.40;99.90
57636;DHT22;43465;50.728;4.160;2023-02-28T07:13:19;2.40;99.90
57636;DHT22;43465;50.728;4.160;2023-02-28T07:15:56;2.50;99.90
57636;DHT22;43465;50.728;4.160;2023-02-28T07:18:23;2.40;99.90
57636;DHT22;43465;50.728;4.160;2023-02-28T07:20:49;2.30;99.90
57636;DHT22;43465;50.728;4.160;2023-02-28T07:23:15;2.40;99.90
57636;DHT22;43465;50.728;4.160;2023-02-28T07:25:41;2.40;99.90
57636;DHT22;43465;50.728;4.160;2023-02-28T07:28:06;2.40;99.90
57636;DHT22;43465;50.728;4.160;2023-02-28T07:30:32;2.50;99.90
57636;DHT22;43465;50.728;4.160;2023-02-28T07:32:58;2.60;99.90
57636;DHT22;43465;50.728;4.160;2023-02-28T07:35:23;2.60;99.90
57636;DHT22;43465;50.728;4.160;2023-02-28T07:37:49;2.70;99.90
57636;DHT22;43465;50.728;4.160;2023-02-28T07:40:15;2.70;99.90
57636;DHT22;43465;50.728;4.160;2023-02-28T07:42:41;2.70;99.90
57636;DHT22;43465;50.728;4.160;2023-02-28T07:45:08;2.80;99.90
57636;DHT22;43465;50.728;4.160;2023-02-28T07:47:37;2.90;99.90
57636;DHT22;43465;50.728;4.160;2023-02-28T07:50:04;3.00;99.90
57636;DHT22;43465;50.728;4.160;2023-02-28T07:52:30;3.00;99.90
57636;DHT22;43465;50.728;4.160;2023-02-28T07:54:55;3.10;99.90
57636;DHT22;43465;50.728;4.160;2023-02-28T07:57:21;3.00;99.90
57636;DHT22;43465;50.728;4.160;2023-02-28T07:59:47;3.10;99.90
57636;DHT22;43465;50.728;4.160;2023-02-28T08:02:17;3.00;99.90
57636;DHT22;43465;50.728;4.160;2023-02-28T08:04:44;3.10;99.90
57636;DHT22;43465;50.728;4.160;2023-02-28T08:07:11;3.00;99.90
57636;DHT22;43465;50.728;4.160;2023-02-28T08:09:39;3.10;99.90
57636;DHT22;43465;50.728;4.160;2023-02-28T08:12:05;3.10;99.90
57636;DHT22;43465;50.728;4.160;2023-02-28T08:14:31;3.20;99.90
57636;DHT22;43465;50.728;4.160;2023-02-28T08:16:56;3.30;99.90
57636;DHT22;43465;50.728;4.160;2023-02-28T08:19:22;3.50;99.90
57636;DHT22;43465;50.728;4.160;2023-02-28T08:21:48;3.40;99.90
57636;DHT22;43465;50.728;4.160;2023-02-28T08:24:13;3.40;99.90
57636;DHT22;43465;50.728;4.160;2023-02-28T08:26:39;3.40;99.90
57636;DHT22;43465;50.728;4.160;2023-02-28T08:29:05;3.50;99.90
57636;DHT22;43465;50.728;4.160;2023-02-28T08:31:30;3.50;99.90
57636;DHT22;43465;50.728;4.160;2023-02-28T08:33:56;3.60;99.90
57636;DHT22;43465;50.728;4.160;2023-02-28T08:36:24;3.70;99.90
57636;DHT22;43465;50.728;4.160;2023-02-28T08:38:50;3.70;99.90
57636;DHT22;43465;50.728;4.160;2023-02-28T08:41:16;3.80;99.90
57636;DHT22;43465;50.728;4.160;2023-02-28T08:43:42;3.90;99.90
57636;DHT22;43465;50.728;4.160;2023-02-28T08:46:10;4.10;99.90
57636;DHT22;43465;50.728;4.160;2023-02-28T08:48:36;4.20;99.90
57636;DHT22;43465;50.728;4.160;2023-02-28T08:51:08;4.40;99.90
57636;DHT22;43465;50.728;4.160;2023-02-28T08:53:38;4.40;99.90
57636;DHT22;43465;50.728;4.160;2023-02-28T08:56:15;4.60;99.90
57636;DHT22;43465;50.728;4.160;2023-02-28T08:58:43;4.60;99.90
57636;DHT22;43465;50.728;4.160;2023-02-28T09:01:11;4.70;99.90
57636;DHT22;43465;50.728;4.160;2023-02-28T09:03:37;4.70;99.90
57636;DHT22;43465;50.728;4.160;2023-02-28T09:06:03;4.70;99.90
57636;DHT22;43465;50.728;4.160;2023-02-28T09:08:30;4.80;99.90
57636;DHT22;43465;50.728;4.160;2023-02-28T09:10:57;4.80;99.90
57636;DHT22;43465;50.728;4.160;2023-02-28T09:13:24;4.90;99.90
57636;DHT22;43465;50.728;4.160;2023-02-28T09:15:50;4.80;99.90
57636;DHT22;43465;50.728;4.160;2023-02-28T09:18:16;4.70;99.90
57636;DHT22;43465;50.728;4.160;2023-02-28T09:20:43;4.80;99.90
57636;DHT22;43465;50.728;4.160;2023-02-28T09:23:10;4.80;99.90
57636;DHT22;43465;50.728;4.160;2023-02-28T09:25:36;4.80;99.90
57636;DHT22;43465;50.728;4.160;2023-02-28T09:28:02;4.90;99.90
57636;DHT22;43465;50.728;4.160;2023-02-28T09:30:28;5.00;99.90
57636;DHT22;43465;50.728;4.160;2023-02-28T09:32:54;5.00;99.90
57636;DHT22;43465;50.728;4.160;2023-02-28T09:35:23;5.10;99.90
57636;DHT22;43465;50.728;4.160;2023-02-28T09:37:51;5.20;99.40
57636;DHT22;43465;50.728;4.160;2023-02-28T09:40:20;5.20;99.20
57636;DHT22;43465;50.728;4.160;2023-02-28T09:42:48;5.20;98.80
57636;DHT22;43465;50.728;4.160;2023-02-28T09:45:40;5.30;98.40
57636;DHT22;43465;50.728;4.160;2023-02-28T09:48:14;5.30;94.20
57636;DHT22;43465;50.728;4.160;2023-02-28T09:53:53;5.10;94.20
57636;DHT22;43465;50.728;4.160;2023-02-28T09:56:24;5.10;93.80
57636;DHT22;43465;50.728;4.160;2023-02-28T10:01:42;5.40;92.80
57636;DHT22;43465;50.728;4.160;2023-02-28T10:04:16;5.50;92.00
57636;DHT22;43465;50.728;4.160;2023-02-28T10:06:51;5.50;93.70
57636;DHT22;43465;50.728;4.160;2023-02-28T10:11:46;5.50;91.40
57636;DHT22;43465;50.728;4.160;2023-02-28T10:14:18;5.50;90.60
57636;DHT22;43465;50.728;4.160;2023-02-28T10:16:56;5.40;90.50
57636;DHT22;43465;50.728;4.160;2023-02-28T10:19:44;5.50;91.10
57636;DHT22;43465;50.728;4.160;2023-02-28T10:22:44;5.60;90.60
57636;DHT22;43465;50.728;4.160;2023-02-28T10:25:21;5.80;90.40
57636;DHT22;43465;50.728;4.160;2023-02-28T10:27:49;6.00;89.50
57636;DHT22;43465;50.728;4.160;2023-02-28T10:30:15;5.90;87.20
57636;DHT22;43465;50.728;4.160;2023-02-28T10:32:47;5.90;88.70
57636;DHT22;43465;50.728;4.160;2023-02-28T10:35:24;6.00;87.90
57636;DHT22;43465;50.728;4.160;2023-02-28T10:37:53;6.00;89.20
57636;DHT22;43465;50.728;4.160;2023-02-28T10:43:03;6.00;87.30
57636;DHT22;43465;50.728;4.160;2023-02-28T10:45:34;5.90;85.20
57636;DHT22;43465;50.728;4.160;2023-02-28T10:50:50;5.80;86.20
57636;DHT22;43465;50.728;4.160;2023-02-28T11:09:40;6.50;84.10
57636;DHT22;43465;50.728;4.160;2023-02-28T11:12:19;6.50;85.90
57636;DHT22;43465;50.728;4.160;2023-02-28T11:14:56;6.60;82.60
57636;DHT22;43465;50.728;4.160;2023-02-28T11:17:28;6.70;81.10
57636;DHT22;43465;50.728;4.160;2023-02-28T11:20:03;6.70;80.20
57636;DHT22;43465;50.728;4.160;2023-02-28T11:22:37;6.60;79.70
57636;DHT22;43465;50.728;4.160;2023-02-28T11:27:57;6.80;78.20
57636;DHT22;43465;50.728;4.160;2023-02-28T11:30:29;6.90;78.70
57636;DHT22;43465;50.728;4.160;2023-02-28T11:32:55;6.80;79.10
57636;DHT22;43465;50.728;4.160;2023-02-28T11:35:33;6.70;78.40
57636;DHT22;43465;50.728;4.160;2023-02-28T11:38:01;6.80;78.70
57636;DHT22;43465;50.728;4.160;2023-02-28T11:40:39;6.80;78.00
57636;DHT22;43465;50.728;4.160;2023-02-28T11:46:30;6.90;78.90
57636;DHT22;43465;50.728;4.160;2023-02-28T11:51:35;6.90;76.00
57636;DHT22;43465;50.728;4.160;2023-02-28T11:54:24;7.00;75.10
57636;DHT22;43465;50.728;4.160;2023-02-28T11:56:57;7.00;76.20
57636;DHT22;43465;50.728;4.160;2023-02-28T12:05:09;7.40;75.20
57636;DHT22;43465;50.728;4.160;2023-02-28T12:13:53;7.40;75.90
57636;DHT22;43465;50.728;4.160;2023-02-28T12:27:52;7.20;74.50
57636;DHT22;43465;50.728;4.160;2023-02-28T12:30:25;7.10;76.20
57636;DHT22;43465;50.728;4.160;2023-02-28T12:33:15;7.10;76.50
57636;DHT22;43465;50.728;4.160;2023-02-28T12:35:56;7.00;77.50
57636;DHT22;43465;50.728;4.160;2023-02-28T12:41:09;7.00;75.90
57636;DHT22;43465;50.728;4.160;2023-02-28T12:43:57;7.00;76.90
57636;DHT22;43465;50.728;4.160;2023-02-28T12:46:44;7.10;76.50
57636;DHT22;43465;50.728;4.160;2023-02-28T12:49:19;7.20;75.00
57636;DHT22;43465;50.728;4.160;2023-02-28T12:51:47;7.40;73.00
57636;DHT22;43465;50.728;4.160;2023-02-28T12:59:32;7.30;75.30
57636;DHT22;43465;50.728;4.160;2023-02-28T13:02:41;7.40;73.10
57636;DHT22;43465;50.728;4.160;2023-02-28T13:10:46;7.60;70.90
57636;DHT22;43465;50.728;4.160;2023-02-28T13:13:18;7.60;69.60
57636;DHT22;43465;50.728;4.160;2023-02-28T13:16:07;7.60;71.00
57636;DHT22;43465;50.728;4.160;2023-02-28T13:21:07;7.50;71.70
57636;DHT22;43465;50.728;4.160;2023-02-28T13:23:57;7.60;70.80
57636;DHT22;43465;50.728;4.160;2023-02-28T13:29:27;8.10;70.60
57636;DHT22;43465;50.728;4.160;2023-02-28T13:34:41;7.90;68.90
57636;DHT22;43465;50.728;4.160;2023-02-28T13:47:44;8.00;69.00
57636;DHT22;43465;50.728;4.160;2023-02-28T13:50:40;8.00;68.60
57636;DHT22;43465;50.728;4.160;2023-02-28T13:55:45;7.70;69.70
57636;DHT22;43465;50.728;4.160;2023-02-28T13:58:41;7.80;70.20
57636;DHT22;43465;50.728;4.160;2023-02-28T14:06:53;8.50;68.00
57636;DHT22;43465;50.728;4.160;2023-02-28T14:09:27;8.70;67.90
57636;DHT22;43465;50.728;4.160;2023-02-28T14:11:54;9.10;66.50
57636;DHT22;43465;50.728;4.160;2023-02-28T14:17:06;10.20;64.50
57636;DHT22;43465;50.728;4.160;2023-02-28T14:19:37;10.50;63.40
57636;DHT22;43465;50.728;4.160;2023-02-28T14:22:36;10.80;60.30
57636;DHT22;43465;50.728;4.160;2023-02-28T14:25:15;11.20;60.30
57636;DHT22;43465;50.728;4.160;2023-02-28T14:28:08;11.00;57.10
57636;DHT22;43465;50.728;4.160;2023-02-28T14:30:56;10.90;59.40
57636;DHT22;43465;50.728;4.160;2023-02-28T14:33:25;10.90;58.40
57636;DHT22;43465;50.728;4.160;2023-02-28T14:38:56;11.30;57.60
57636;DHT22;43465;50.728;4.160;2023-02-28T14:43:55;11.10;57.70
57636;DHT22;43465;50.728;4.160;2023-02-28T14:46:25;11.20;57.60
57636;DHT22;43465;50.728;4.160;2023-02-28T14:48:52;11.20;55.40
57636;DHT22;43465;50.728;4.160;2023-02-28T14:51:21;11.10;55.70
57636;DHT22;43465;50.728;4.160;2023-02-28T14:54:01;11.30;57.20
57636;DHT22;43465;50.728;4.160;2023-02-28T14:56:37;11.40;56.10
57636;DHT22;43465;50.728;4.160;2023-02-28T14:59:04;11.30;55.80
57636;DHT22;43465;50.728;4.160;2023-02-28T15:01:31;11.30;55.40
57636;DHT22;43465;50.728;4.160;2023-02-28T15:04:05;11.10;55.80
57636;DHT22;43465;50.728;4.160;2023-02-28T15:06:32;10.90;57.30
57636;DHT22;43465;50.728;4.160;2023-02-28T15:09:27;10.80;57.70
57636;DHT22;43465;50.728;4.160;2023-02-28T15:11:54;10.70;56.20
57636;DHT22;43465;50.728;4.160;2023-02-28T15:14:21;10.40;56.40
57636;DHT22;43465;50.728;4.160;2023-02-28T15:16:57;10.20;56.60
57636;DHT22;43465;50.728;4.160;2023-02-28T15:19:29;10.00;57.00
57636;DHT22;43465;50.728;4.160;2023-02-28T15:22:10;9.90;57.70
57636;DHT22;43465;50.728;4.160;2023-02-28T15:24:44;9.80;57.40
57636;DHT22;43465;50.728;4.160;2023-02-28T15:27:26;9.60;59.60
57636;DHT22;43465;50.728;4.160;2023-02-28T15:30:01;9.80;59.20
57636;DHT22;43465;50.728;4.160;2023-02-28T15:32:38;10.00;57.70
57636;DHT22;43465;50.728;4.160;2023-02-28T15:40:51;10.30;56.40
57636;DHT22;43465;50.728;4.160;2023-02-28T15:43:36;9.90;57.50
57636;DHT22;43465;50.728;4.160;2023-02-28T15:46:06;9.80;58.30
57636;DHT22;43465;50.728;4.160;2023-02-28T15:48:33;9.90;58.30
57636;DHT22;43465;50.728;4.160;2023-02-28T15:53:32;10.70;56.70
57636;DHT22;43465;50.728;4.160;2023-02-28T15:56:04;10.70;56.20
57636;DHT22;43465;50.728;4.160;2023-02-28T15:58:31;10.70;55.70
57636;DHT22;43465;50.728;4.160;2023-02-28T16:01:08;10.80;56.20
57636;DHT22;43465;50.728;4.160;2023-02-28T16:03:45;10.60;55.90
57636;DHT22;43465;50.728;4.160;2023-02-28T16:06:34;10.40;56.10
57636;DHT22;43465;50.728;4.160;2023-02-28T16:09:01;9.80;56.70
57636;DHT22;43465;50.728;4.160;2023-02-28T16:11:26;9.90;57.60
57636;DHT22;43465;50.728;4.160;2023-02-28T16:13:53;10.10;57.40
57636;DHT22;43465;50.728;4.160;2023-02-28T16:16:22;10.30;56.90
57636;DHT22;43465;50.728;4.160;2023-02-28T16:18:48;10.50;57.00
57636;DHT22;43465;50.728;4.160;2023-02-28T16:21:14;10.70;55.70
57636;DHT22;43465;50.728;4.160;2023-02-28T16:23:39;10.90;56.00
57636;DHT22;43465;50.728;4.160;2023-02-28T16:26:05;10.90;55.60
57636;DHT22;43465;50.728;4.160;2023-02-28T16:28:34;11.00;55.40
57636;DHT22;43465;50.728;4.160;2023-02-28T16:31:01;10.90;55.40
57636;DHT22;43465;50.728;4.160;2023-02-28T16:33:33;10.90;55.90
57636;DHT22;43465;50.728;4.160;2023-02-28T16:36:00;10.80;55.90
57636;DHT22;43465;50.728;4.160;2023-02-28T16:38:26;10.60;55.70
57636;DHT22;43465;50.728;4.160;2023-02-28T16:40:53;10.30;56.90
57636;DHT22;43465;50.728;4.160;2023-02-28T16:43:23;10.00;56.80
57636;DHT22;43465;50.728;4.160;2023-02-28T16:45:57;10.00;57.60
57636;DHT22;43465;50.728;4.160;2023-02-28T16:48:28;9.80;58.10
57636;DHT22;43465;50.728;4.160;2023-02-28T16:50:56;9.70;57.50
57636;DHT22;43465;50.728;4.160;2023-02-28T16:53:21;9.80;57.90
57636;DHT22;43465;50.728;4.160;2023-02-28T16:55:47;9.90;58.60
57636;DHT22;43465;50.728;4.160;2023-02-28T16:58:16;10.00;58.30
57636;DHT22;43465;50.728;4.160;2023-02-28T17:00:42;10.10;57.80
57636;DHT22;43465;50.728;4.160;2023-02-28T17:03:24;10.00;57.50
57636;DHT22;43465;50.728;4.160;2023-02-28T17:05:50;9.90;58.40
57636;DHT22;43465;50.728;4.160;2023-02-28T17:08:16;9.80;59.50
57636;DHT22;43465;50.728;4.160;2023-02-28T17:10:42;9.70;59.60
57636;DHT22;43465;50.728;4.160;2023-02-28T17:13:07;9.60;59.10
57636;DHT22;43465;50.728;4.160;2023-02-28T17:15:36;9.50;59.80
57636;DHT22;43465;50.728;4.160;2023-02-28T17:18:03;9.30;59.90
57636;DHT22;43465;50.728;4.160;2023-02-28T17:20:29;9.00;61.10
57636;DHT22;43465;50.728;4.160;2023-02-28T17:22:55;8.70;62.50
57636;DHT22;43465;50.728;4.160;2023-02-28T17:25:22;8.60;62.90
57636;DHT22;43465;50.728;4.160;2023-02-28T17:27:48;8.30;63.50
57636;DHT22;43465;50.728;4.160;2023-02-28T17:32:41;8.00;65.60
57636;DHT22;43465;50.728;4.160;2023-02-28T17:35:07;7.90;66.30
57636;DHT22;43465;50.728;4.160;2023-02-28T17:37:33;7.80;66.40
57636;DHT22;43465;50.728;4.160;2023-02-28T17:39:59;7.50;66.80
57636;DHT22;43465;50.728;4.160;2023-02-28T17:42:24;7.40;67.90
57636;DHT22;43465;50.728;4.160;2023-02-28T17:44:50;7.40;67.90
57636;DHT22;43465;50.728;4.160;2023-02-28T17:47:16;7.30;68.00
57636;DHT22;43465;50.728;4.160;2023-02-28T17:49:41;7.20;68.40
57636;DHT22;43465;50.728;4.160;2023-02-28T17:52:08;7.20;68.10
57636;DHT22;43465;50.728;4.160;2023-02-28T17:54:33;7.00;68.90
57636;DHT22;43465;50.728;4.160;2023-02-28T17:56:59;7.00;68.80
57636;DHT22;43465;50.728;4.160;2023-02-28T17:59:25;7.00;68.80
57636;DHT22;43465;50.728;4.160;2023-02-28T18:01:51;7.00;70.00
57636;DHT22;43465;50.728;4.160;2023-02-28T18:04:16;6.90;69.00
57636;DHT22;43465;50.728;4.160;2023-02-28T18:06:45;6.70;70.20
57636;DHT22;43465;50.728;4.160;2023-02-28T18:09:16;6.60;71.30
57636;DHT22;43465;50.728;4.160;2023-02-28T18:11:42;6.60;70.60
57636;DHT22;43465;50.728;4.160;2023-02-28T18:14:10;6.40;71.40
57636;DHT22;43465;50.728;4.160;2023-02-28T18:16:36;6.50;71.50
57636;DHT22;43465;50.728;4.160;2023-02-28T18:19:03;6.60;71.20
57636;DHT22;43465;50.728;4.160;2023-02-28T18:21:29;6.60;71.50
57636;DHT22;43465;50.728;4.160;2023-02-28T18:23:56;6.50;72.20
57636;DHT22;43465;50.728;4.160;2023-02-28T18:26:22;6.60;71.80
57636;DHT22;43465;50.728;4.160;2023-02-28T18:28:48;6.50;72.10
57636;DHT22;43465;50.728;4.160;2023-02-28T18:31:16;6.40;72.80
57636;DHT22;43465;50.728;4.160;2023-02-28T18:33:44;6.40;72.80
57636;DHT22;43465;50.728;4.160;2023-02-28T18:36:12;6.40;72.60
57636;DHT22;43465;50.728;4.160;2023-02-28T18:38:38;6.40;73.40
57636;DHT22;43465;50.728;4.160;2023-02-28T18:41:05;6.30;73.70
57636;DHT22;43465;50.728;4.160;2023-02-28T18:43:33;6.30;73.60
57636;DHT22;43465;50.728;4.160;2023-02-28T18:46:10;6.20;73.70